San Manuel, Arizona
Current Conditions -  °F | °C
As of 11:23 PM on Friday 24 Oct 2014 (Local Time) from KDMA Reporting Station
Clear Clear  
Wind Chill: 70°   Ceiling: Unl
Heat Index: 70°   Visibility: 10mi
Dew Point: 48°   Wind: 6mph
Humidity: 46%   Direction: 130°SE
Pressure: 30.1"   Gusts: NA
Location:  32.6°N, 110.63°W
Report Text: KDMA 250623Z AUTO 13005KT 10SM CLR 21/09 A3010 RMK AO2
Loading
Personal Weather Stations






























Interactive Weather Map
Tropical Storm Tracking
New forecast layout! Learn more

10-Day Weather Forecast

Advertisements
Track Severe Weather on mobile